メインページ
METAR-TAF:

METAR-TAF

空港 :

福島空港

郡山, 日本

緯度: 37-24N, 経度: 140-23E, 海抜: 372m

現時点の気象観測

当レポートは1時間21分前の11:00(UTC)に作成
北東の風 3kt
気温 12°C
湿度 100%
気圧 1012 hPa
視程10km以上
高度2000ftの雲はほとんどない
千切れ雲あり

METAR: RJSF 161100Z 04003KT 9999 FEW020 BKN/// 12/12 Q1012

時間: 21:21 (12:21 UTC)

予報

当レポートは1時間16分前の11:05(UTC)に作成
予報は16日の 12時(UTC)から 17日の 18時(UTC)まで有効
の風 6kt
視程10km以上
高度3000ftの雲はほとんどない
16日の 21時(UTC)から 17日の 03時(UTC)まで一時的に
視程: 1500m
高度100ftの雲はほとんどない
高度300ftの千切れ雲あり
高度500ftの千切れ雲あり
にわか雨, 靄

TAF: RJSF 161105Z 1612/1718 36006KT 9999 FEW030 TEMPO 1621/1703 1500 SHRA BR FEW001 BKN003 BKN005

4,000以上の空港の気象観測と天気予報(METAR報とTAF報)

利用可能な観測所は地図上に黄色い丸と赤い丸で示す。

丸の上にカーソルを重ねると観測所名を参照できる。

次にクリックすると気象観測と天気予報を参照できる。

マップの切り替え:黒色「×」印の緑ボタンをクリックして拡大、「-」印の緑ボタンをクリックして縮小、緑色の三角印をクリックして隣りの地図に切り替え


METAR-TAF: